sensor_id;sensor_type;location;lat;lon;timestamp;P1;durP1;ratioP1;P2;durP2;ratioP2
69363;SDS011;56526;55.406;86.130;2022-09-09T00:04:43;21.15;;;8.80;;
69363;SDS011;56526;55.406;86.130;2022-09-09T00:07:47;22.10;;;9.70;;
69363;SDS011;56526;55.406;86.130;2022-09-09T00:10:20;26.40;;;8.90;;
69363;SDS011;56526;55.406;86.130;2022-09-09T00:12:58;27.58;;;9.60;;
69363;SDS011;56526;55.406;86.130;2022-09-09T00:15:59;18.83;;;8.02;;
69363;SDS011;56526;55.406;86.130;2022-09-09T00:18:48;19.92;;;8.27;;
69363;SDS011;56526;55.406;86.130;2022-09-09T00:21:30;20.42;;;11.55;;
69363;SDS011;56526;55.406;86.130;2022-09-09T00:24:28;26.25;;;9.07;;
69363;SDS011;56526;55.406;86.130;2022-09-09T00:27:06;21.65;;;8.43;;
69363;SDS011;56526;55.406;86.130;2022-09-09T00:29:46;18.27;;;8.57;;
69363;SDS011;56526;55.406;86.130;2022-09-09T00:32:19;21.33;;;8.05;;
69363;SDS011;56526;55.406;86.130;2022-09-09T00:34:48;21.45;;;8.63;;
69363;SDS011;56526;55.406;86.130;2022-09-09T00:37:20;19.02;;;9.50;;
69363;SDS011;56526;55.406;86.130;2022-09-09T00:39:50;25.10;;;9.30;;
69363;SDS011;56526;55.406;86.130;2022-09-09T00:47:56;19.73;;;8.93;;
69363;SDS011;56526;55.406;86.130;2022-09-09T00:56:06;37.13;;;10.57;;
69363;SDS011;56526;55.406;86.130;2022-09-09T00:58:42;35.05;;;16.27;;
69363;SDS011;56526;55.406;86.130;2022-09-09T01:01:39;19.17;;;8.73;;
69363;SDS011;56526;55.406;86.130;2022-09-09T01:04:10;26.73;;;10.07;;
69363;SDS011;56526;55.406;86.130;2022-09-09T01:06:46;21.88;;;8.25;;
69363;SDS011;56526;55.406;86.130;2022-09-09T01:12:17;78.72;;;40.17;;
69363;SDS011;56526;55.406;86.130;2022-09-09T01:15:17;61.85;;;33.20;;
69363;SDS011;56526;55.406;86.130;2022-09-09T01:17:53;53.83;;;30.77;;
69363;SDS011;56526;55.406;86.130;2022-09-09T01:20:33;50.22;;;29.23;;
69363;SDS011;56526;55.406;86.130;2022-09-09T01:26:18;48.75;;;27.05;;
69363;SDS011;56526;55.406;86.130;2022-09-09T01:29:01;32.97;;;20.58;;
69363;SDS011;56526;55.406;86.130;2022-09-09T01:31:32;35.08;;;21.77;;
69363;SDS011;56526;55.406;86.130;2022-09-09T01:34:33;35.65;;;20.40;;
69363;SDS011;56526;55.406;86.130;2022-09-09T01:37:06;37.55;;;21.02;;
69363;SDS011;56526;55.406;86.130;2022-09-09T01:39:35;31.73;;;18.00;;
69363;SDS011;56526;55.406;86.130;2022-09-09T01:42:05;31.20;;;19.58;;
69363;SDS011;56526;55.406;86.130;2022-09-09T01:44:35;27.10;;;16.65;;
69363;SDS011;56526;55.406;86.130;2022-09-09T01:47:03;37.90;;;19.73;;
69363;SDS011;56526;55.406;86.130;2022-09-09T01:49:31;36.42;;;18.05;;
69363;SDS011;56526;55.406;86.130;2022-09-09T01:51:58;35.63;;;19.80;;
69363;SDS011;56526;55.406;86.130;2022-09-09T01:54:30;41.40;;;20.02;;
69363;SDS011;56526;55.406;86.130;2022-09-09T01:57:06;36.20;;;13.70;;
69363;SDS011;56526;55.406;86.130;2022-09-09T02:02:30;26.23;;;12.15;;
69363;SDS011;56526;55.406;86.130;2022-09-09T02:08:05;24.10;;;11.43;;
69363;SDS011;56526;55.406;86.130;2022-09-09T02:13:12;25.85;;;10.30;;
69363;SDS011;56526;55.406;86.130;2022-09-09T02:15:57;24.67;;;10.95;;
69363;SDS011;56526;55.406;86.130;2022-09-09T02:18:33;30.08;;;11.57;;
69363;SDS011;56526;55.406;86.130;2022-09-09T02:21:19;26.35;;;13.52;;
69363;SDS011;56526;55.406;86.130;2022-09-09T02:23:47;24.75;;;10.68;;
69363;SDS011;56526;55.406;86.130;2022-09-09T02:26:14;20.98;;;8.93;;
69363;SDS011;56526;55.406;86.130;2022-09-09T02:28:43;22.42;;;9.38;;
69363;SDS011;56526;55.406;86.130;2022-09-09T02:31:14;19.30;;;8.13;;
69363;SDS011;56526;55.406;86.130;2022-09-09T02:33:46;22.45;;;10.23;;
69363;SDS011;56526;55.406;86.130;2022-09-09T02:36:20;25.52;;;9.40;;
69363;SDS011;56526;55.406;86.130;2022-09-09T02:38:49;22.80;;;8.93;;
69363;SDS011;56526;55.406;86.130;2022-09-09T02:41:18;20.90;;;8.77;;
69363;SDS011;56526;55.406;86.130;2022-09-09T02:43:50;20.10;;;9.77;;
69363;SDS011;56526;55.406;86.130;2022-09-09T02:49:11;26.92;;;10.07;;
69363;SDS011;56526;55.406;86.130;2022-09-09T02:54:28;29.65;;;13.05;;
69363;SDS011;56526;55.406;86.130;2022-09-09T02:59:33;31.83;;;13.05;;
69363;SDS011;56526;55.406;86.130;2022-09-09T03:02:00;32.97;;;12.75;;
69363;SDS011;56526;55.406;86.130;2022-09-09T03:04:27;36.10;;;17.17;;
69363;SDS011;56526;55.406;86.130;2022-09-09T03:06:53;41.10;;;15.95;;
69363;SDS011;56526;55.406;86.130;2022-09-09T03:09:19;41.20;;;16.23;;
69363;SDS011;56526;55.406;86.130;2022-09-09T03:11:46;35.13;;;13.40;;
69363;SDS011;56526;55.406;86.130;2022-09-09T03:14:12;36.85;;;13.77;;
69363;SDS011;56526;55.406;86.130;2022-09-09T03:16:38;37.03;;;14.02;;
69363;SDS011;56526;55.406;86.130;2022-09-09T03:19:05;33.80;;;16.40;;
69363;SDS011;56526;55.406;86.130;2022-09-09T03:21:32;36.30;;;11.18;;
69363;SDS011;56526;55.406;86.130;2022-09-09T03:23:58;30.23;;;11.32;;
69363;SDS011;56526;55.406;86.130;2022-09-09T03:26:25;29.08;;;11.75;;
69363;SDS011;56526;55.406;86.130;2022-09-09T03:28:51;31.00;;;10.90;;
69363;SDS011;56526;55.406;86.130;2022-09-09T03:31:17;30.00;;;10.75;;
69363;SDS011;56526;55.406;86.130;2022-09-09T03:33:44;24.48;;;10.93;;
69363;SDS011;56526;55.406;86.130;2022-09-09T03:36:10;31.60;;;10.05;;
69363;SDS011;56526;55.406;86.130;2022-09-09T03:38:36;24.60;;;10.48;;
69363;SDS011;56526;55.406;86.130;2022-09-09T03:41:02;28.75;;;9.80;;
69363;SDS011;56526;55.406;86.130;2022-09-09T03:43:29;23.08;;;9.30;;
69363;SDS011;56526;55.406;86.130;2022-09-09T03:45:56;23.92;;;8.18;;
69363;SDS011;56526;55.406;86.130;2022-09-09T03:48:22;23.65;;;9.43;;
69363;SDS011;56526;55.406;86.130;2022-09-09T03:50:50;26.58;;;7.03;;
69363;SDS011;56526;55.406;86.130;2022-09-09T03:53:19;20.67;;;9.00;;
69363;SDS011;56526;55.406;86.130;2022-09-09T03:55:51;19.60;;;8.13;;
69363;SDS011;56526;55.406;86.130;2022-09-09T03:58:20;20.80;;;8.35;;
69363;SDS011;56526;55.406;86.130;2022-09-09T04:00:58;21.08;;;9.45;;
69363;SDS011;56526;55.406;86.130;2022-09-09T04:03:50;27.48;;;11.93;;
69363;SDS011;56526;55.406;86.130;2022-09-09T04:06:16;30.35;;;10.88;;
69363;SDS011;56526;55.406;86.130;2022-09-09T04:08:43;27.92;;;9.75;;
69363;SDS011;56526;55.406;86.130;2022-09-09T04:11:09;22.45;;;9.73;;
69363;SDS011;56526;55.406;86.130;2022-09-09T04:13:36;19.45;;;7.90;;
69363;SDS011;56526;55.406;86.130;2022-09-09T04:16:03;19.60;;;8.18;;
69363;SDS011;56526;55.406;86.130;2022-09-09T04:18:30;21.48;;;7.28;;
69363;SDS011;56526;55.406;86.130;2022-09-09T04:20:57;18.88;;;8.88;;
69363;SDS011;56526;55.406;86.130;2022-09-09T04:23:24;22.52;;;9.73;;
69363;SDS011;56526;55.406;86.130;2022-09-09T04:25:53;22.77;;;8.93;;
69363;SDS011;56526;55.406;86.130;2022-09-09T04:28:22;18.33;;;8.32;;
69363;SDS011;56526;55.406;86.130;2022-09-09T04:30:50;24.73;;;8.60;;
69363;SDS011;56526;55.406;86.130;2022-09-09T04:33:18;22.60;;;9.93;;
69363;SDS011;56526;55.406;86.130;2022-09-09T04:35:45;20.65;;;7.68;;
69363;SDS011;56526;55.406;86.130;2022-09-09T04:38:16;25.55;;;9.88;;
69363;SDS011;56526;55.406;86.130;2022-09-09T04:40:43;25.45;;;9.77;;
69363;SDS011;56526;55.406;86.130;2022-09-09T04:43:12;19.67;;;7.93;;
69363;SDS011;56526;55.406;86.130;2022-09-09T04:45:39;21.27;;;8.07;;
69363;SDS011;56526;55.406;86.130;2022-09-09T04:48:06;17.23;;;7.20;;
69363;SDS011;56526;55.406;86.130;2022-09-09T04:50:33;19.38;;;6.50;;
69363;SDS011;56526;55.406;86.130;2022-09-09T04:53:00;20.27;;;7.45;;
69363;SDS011;56526;55.406;86.130;2022-09-09T04:55:28;20.60;;;7.82;;
69363;SDS011;56526;55.406;86.130;2022-09-09T04:57:55;14.32;;;6.75;;
69363;SDS011;56526;55.406;86.130;2022-09-09T05:00:22;15.18;;;6.25;;
69363;SDS011;56526;55.406;86.130;2022-09-09T05:02:48;13.23;;;6.32;;
69363;SDS011;56526;55.406;86.130;2022-09-09T05:05:15;11.98;;;5.65;;
69363;SDS011;56526;55.406;86.130;2022-09-09T05:07:41;12.80;;;6.03;;
69363;SDS011;56526;55.406;86.130;2022-09-09T05:10:11;14.85;;;6.50;;
69363;SDS011;56526;55.406;86.130;2022-09-09T05:12:37;24.42;;;6.97;;
69363;SDS011;56526;55.406;86.130;2022-09-09T05:15:04;11.98;;;5.97;;
69363;SDS011;56526;55.406;86.130;2022-09-09T05:17:30;9.43;;;5.28;;
69363;SDS011;56526;55.406;86.130;2022-09-09T05:19:57;16.10;;;7.95;;
69363;SDS011;56526;55.406;86.130;2022-09-09T05:22:23;13.88;;;5.38;;
69363;SDS011;56526;55.406;86.130;2022-09-09T05:24:49;11.02;;;5.97;;
69363;SDS011;56526;55.406;86.130;2022-09-09T05:27:17;13.10;;;5.65;;
69363;SDS011;56526;55.406;86.130;2022-09-09T05:29:43;17.65;;;6.45;;
69363;SDS011;56526;55.406;86.130;2022-09-09T05:32:10;17.92;;;6.25;;
69363;SDS011;56526;55.406;86.130;2022-09-09T05:34:37;15.27;;;5.93;;
69363;SDS011;56526;55.406;86.130;2022-09-09T05:37:03;17.77;;;6.20;;
69363;SDS011;56526;55.406;86.130;2022-09-09T05:39:30;15.85;;;7.88;;
69363;SDS011;56526;55.406;86.130;2022-09-09T05:41:56;21.05;;;5.90;;
69363;SDS011;56526;55.406;86.130;2022-09-09T05:44:23;18.65;;;5.93;;
69363;SDS011;56526;55.406;86.130;2022-09-09T05:46:49;17.15;;;5.55;;
69363;SDS011;56526;55.406;86.130;2022-09-09T05:49:15;21.90;;;7.40;;
69363;SDS011;56526;55.406;86.130;2022-09-09T05:51:42;17.50;;;6.18;;
69363;SDS011;56526;55.406;86.130;2022-09-09T05:54:08;13.20;;;4.97;;
69363;SDS011;56526;55.406;86.130;2022-09-09T05:56:35;12.93;;;4.90;;
69363;SDS011;56526;55.406;86.130;2022-09-09T05:59:01;16.15;;;6.15;;
69363;SDS011;56526;55.406;86.130;2022-09-09T06:01:28;27.00;;;10.18;;
69363;SDS011;56526;55.406;86.130;2022-09-09T06:03:57;22.77;;;6.90;;
69363;SDS011;56526;55.406;86.130;2022-09-09T06:06:25;28.25;;;8.05;;
69363;SDS011;56526;55.406;86.130;2022-09-09T06:08:57;34.50;;;7.72;;
69363;SDS011;56526;55.406;86.130;2022-09-09T06:11:25;30.50;;;8.57;;
69363;SDS011;56526;55.406;86.130;2022-09-09T06:13:53;29.70;;;9.23;;
69363;SDS011;56526;55.406;86.130;2022-09-09T06:16:22;30.23;;;7.70;;
69363;SDS011;56526;55.406;86.130;2022-09-09T06:18:52;23.40;;;6.60;;
69363;SDS011;56526;55.406;86.130;2022-09-09T06:21:35;28.40;;;6.95;;
69363;SDS011;56526;55.406;86.130;2022-09-09T06:24:03;22.60;;;6.72;;
69363;SDS011;56526;55.406;86.130;2022-09-09T06:26:31;18.73;;;6.75;;
69363;SDS011;56526;55.406;86.130;2022-09-09T06:29:01;21.58;;;5.88;;
69363;SDS011;56526;55.406;86.130;2022-09-09T06:31:29;15.90;;;5.28;;
69363;SDS011;56526;55.406;86.130;2022-09-09T06:33:58;14.25;;;5.28;;
69363;SDS011;56526;55.406;86.130;2022-09-09T06:36:25;7.65;;;4.28;;
69363;SDS011;56526;55.406;86.130;2022-09-09T06:38:54;16.00;;;3.97;;
69363;SDS011;56526;55.406;86.130;2022-09-09T06:41:21;9.75;;;5.13;;
69363;SDS011;56526;55.406;86.130;2022-09-09T06:43:49;10.70;;;4.00;;
69363;SDS011;56526;55.406;86.130;2022-09-09T06:46:16;7.78;;;3.22;;
69363;SDS011;56526;55.406;86.130;2022-09-09T06:48:45;9.05;;;3.88;;
69363;SDS011;56526;55.406;86.130;2022-09-09T06:53:41;8.43;;;3.97;;
69363;SDS011;56526;55.406;86.130;2022-09-09T06:58:52;5.43;;;2.25;;
69363;SDS011;56526;55.406;86.130;2022-09-09T07:01:24;5.55;;;2.45;;
69363;SDS011;56526;55.406;86.130;2022-09-09T07:03:53;7.40;;;3.20;;
69363;SDS011;56526;55.406;86.130;2022-09-09T07:06:22;4.30;;;2.75;;
69363;SDS011;56526;55.406;86.130;2022-09-09T07:09:09;5.22;;;2.63;;
69363;SDS011;56526;55.406;86.130;2022-09-09T07:11:41;6.43;;;3.10;;
69363;SDS011;56526;55.406;86.130;2022-09-09T07:14:12;7.93;;;3.50;;
69363;SDS011;56526;55.406;86.130;2022-09-09T07:16:40;7.85;;;2.90;;
69363;SDS011;56526;55.406;86.130;2022-09-09T07:19:08;7.15;;;2.63;;
69363;SDS011;56526;55.406;86.130;2022-09-09T07:21:35;6.00;;;3.67;;
69363;SDS011;56526;55.406;86.130;2022-09-09T07:24:01;6.75;;;2.15;;
69363;SDS011;56526;55.406;86.130;2022-09-09T07:26:29;5.82;;;2.20;;
69363;SDS011;56526;55.406;86.130;2022-09-09T07:28:56;5.10;;;1.90;;
69363;SDS011;56526;55.406;86.130;2022-09-09T07:31:23;6.55;;;2.67;;
69363;SDS011;56526;55.406;86.130;2022-09-09T07:33:55;4.47;;;2.47;;
69363;SDS011;56526;55.406;86.130;2022-09-09T07:36:32;3.03;;;2.10;;
69363;SDS011;56526;55.406;86.130;2022-09-09T07:39:05;3.28;;;2.70;;
69363;SDS011;56526;55.406;86.130;2022-09-09T07:41:39;3.72;;;2.47;;
69363;SDS011;56526;55.406;86.130;2022-09-09T07:44:15;5.20;;;3.03;;
69363;SDS011;56526;55.406;86.130;2022-09-09T07:46:47;6.93;;;3.95;;
69363;SDS011;56526;55.406;86.130;2022-09-09T07:49:14;10.00;;;3.92;;
69363;SDS011;56526;55.406;86.130;2022-09-09T07:51:41;6.40;;;3.75;;
69363;SDS011;56526;55.406;86.130;2022-09-09T07:54:11;3.10;;;2.42;;
69363;SDS011;56526;55.406;86.130;2022-09-09T07:56:40;9.30;;;2.38;;
69363;SDS011;56526;55.406;86.130;2022-09-09T07:59:08;7.63;;;2.25;;
69363;SDS011;56526;55.406;86.130;2022-09-09T08:01:36;4.68;;;3.17;;
69363;SDS011;56526;55.406;86.130;2022-09-09T08:04:07;4.03;;;2.10;;
69363;SDS011;56526;55.406;86.130;2022-09-09T08:06:39;5.82;;;2.60;;
69363;SDS011;56526;55.406;86.130;2022-09-09T08:09:09;3.15;;;2.13;;
69363;SDS011;56526;55.406;86.130;2022-09-09T08:11:35;3.17;;;2.20;;
69363;SDS011;56526;55.406;86.130;2022-09-09T08:14:03;4.50;;;2.88;;
69363;SDS011;56526;55.406;86.130;2022-09-09T08:16:31;5.88;;;3.05;;
69363;SDS011;56526;55.406;86.130;2022-09-09T08:19:00;6.43;;;3.25;;
69363;SDS011;56526;55.406;86.130;2022-09-09T08:21:29;6.18;;;3.08;;
69363;SDS011;56526;55.406;86.130;2022-09-09T08:23:58;7.97;;;3.05;;
69363;SDS011;56526;55.406;86.130;2022-09-09T08:26:30;6.30;;;2.97;;
69363;SDS011;56526;55.406;86.130;2022-09-09T08:29:06;5.05;;;2.53;;
69363;SDS011;56526;55.406;86.130;2022-09-09T08:31:41;5.68;;;2.75;;
69363;SDS011;56526;55.406;86.130;2022-09-09T08:34:16;7.93;;;2.33;;
69363;SDS011;56526;55.406;86.130;2022-09-09T08:36:43;5.63;;;2.42;;
69363;SDS011;56526;55.406;86.130;2022-09-09T08:39:12;5.93;;;2.30;;
69363;SDS011;56526;55.406;86.130;2022-09-09T08:44:46;7.15;;;2.55;;
69363;SDS011;56526;55.406;86.130;2022-09-09T08:47:21;3.70;;;2.05;;
69363;SDS011;56526;55.406;86.130;2022-09-09T08:50:02;7.00;;;2.90;;
69363;SDS011;56526;55.406;86.130;2022-09-09T08:52:49;10.65;;;2.38;;
69363;SDS011;56526;55.406;86.130;2022-09-09T08:57:55;7.72;;;2.85;;
69363;SDS011;56526;55.406;86.130;2022-09-09T09:00:23;7.72;;;2.63;;
69363;SDS011;56526;55.406;86.130;2022-09-09T09:06:25;6.07;;;2.70;;
69363;SDS011;56526;55.406;86.130;2022-09-09T09:11:50;5.88;;;3.85;;
69363;SDS011;56526;55.406;86.130;2022-09-09T09:14:22;9.38;;;3.83;;
69363;SDS011;56526;55.406;86.130;2022-09-09T09:19:27;8.65;;;3.63;;
69363;SDS011;56526;55.406;86.130;2022-09-09T09:22:00;11.13;;;3.50;;
69363;SDS011;56526;55.406;86.130;2022-09-09T09:33:42;6.28;;;2.97;;
69363;SDS011;56526;55.406;86.130;2022-09-09T09:36:13;4.32;;;2.83;;
69363;SDS011;56526;55.406;86.130;2022-09-09T09:38:51;9.32;;;2.83;;
69363;SDS011;56526;55.406;86.130;2022-09-09T09:41:40;5.70;;;2.67;;
69363;SDS011;56526;55.406;86.130;2022-09-09T09:46:49;5.43;;;3.20;;
69363;SDS011;56526;55.406;86.130;2022-09-09T09:49:16;6.72;;;3.55;;
69363;SDS011;56526;55.406;86.130;2022-09-09T09:51:42;6.32;;;3.47;;
69363;SDS011;56526;55.406;86.130;2022-09-09T09:54:14;9.13;;;2.35;;
69363;SDS011;56526;55.406;86.130;2022-09-09T09:56:48;5.38;;;3.75;;
69363;SDS011;56526;55.406;86.130;2022-09-09T09:59:48;8.13;;;2.95;;
69363;SDS011;56526;55.406;86.130;2022-09-09T10:02:15;5.20;;;2.60;;
69363;SDS011;56526;55.406;86.130;2022-09-09T10:04:49;5.03;;;2.10;;
69363;SDS011;56526;55.406;86.130;2022-09-09T10:07:39;4.10;;;2.38;;
69363;SDS011;56526;55.406;86.130;2022-09-09T10:10:08;2.80;;;2.17;;
69363;SDS011;56526;55.406;86.130;2022-09-09T10:12:53;3.70;;;1.88;;
69363;SDS011;56526;55.406;86.130;2022-09-09T10:19:20;2.75;;;1.83;;
69363;SDS011;56526;55.406;86.130;2022-09-09T10:25:17;7.53;;;3.08;;
69363;SDS011;56526;55.406;86.130;2022-09-09T10:31:02;5.93;;;4.35;;
69363;SDS011;56526;55.406;86.130;2022-09-09T10:46:16;4.72;;;2.63;;
69363;SDS011;56526;55.406;86.130;2022-09-09T10:57:38;4.60;;;2.55;;
69363;SDS011;56526;55.406;86.130;2022-09-09T11:03:02;5.60;;;3.47;;
69363;SDS011;56526;55.406;86.130;2022-09-09T11:05:41;3.20;;;2.67;;
69363;SDS011;56526;55.406;86.130;2022-09-09T11:11:11;8.25;;;2.30;;
69363;SDS011;56526;55.406;86.130;2022-09-09T11:13:45;3.83;;;2.00;;
69363;SDS011;56526;55.406;86.130;2022-09-09T11:16:28;7.57;;;2.55;;
69363;SDS011;56526;55.406;86.130;2022-09-09T11:19:03;5.07;;;2.47;;
69363;SDS011;56526;55.406;86.130;2022-09-09T11:35:42;4.97;;;2.65;;
69363;SDS011;56526;55.406;86.130;2022-09-09T11:38:45;7.03;;;1.73;;
69363;SDS011;56526;55.406;86.130;2022-09-09T11:41:40;7.82;;;2.00;;
69363;SDS011;56526;55.406;86.130;2022-09-09T11:44:17;9.02;;;2.10;;
69363;SDS011;56526;55.406;86.130;2022-09-09T11:46:51;3.80;;;2.50;;
69363;SDS011;56526;55.406;86.130;2022-09-09T11:52:12;6.30;;;2.33;;
69363;SDS011;56526;55.406;86.130;2022-09-09T11:54:48;5.05;;;2.15;;
69363;SDS011;56526;55.406;86.130;2022-09-09T11:57:25;6.40;;;2.33;;
69363;SDS011;56526;55.406;86.130;2022-09-09T11:59:55;9.50;;;2.65;;
69363;SDS011;56526;55.406;86.130;2022-09-09T12:02:23;7.65;;;3.05;;
69363;SDS011;56526;55.406;86.130;2022-09-09T12:04:57;6.00;;;2.35;;
69363;SDS011;56526;55.406;86.130;2022-09-09T12:10:22;5.95;;;3.08;;
69363;SDS011;56526;55.406;86.130;2022-09-09T12:13:06;6.90;;;3.42;;
69363;SDS011;56526;55.406;86.130;2022-09-09T12:15:53;7.95;;;2.88;;
69363;SDS011;56526;55.406;86.130;2022-09-09T12:18:25;9.68;;;3.45;;
69363;SDS011;56526;55.406;86.130;2022-09-09T12:21:14;4.00;;;1.67;;
69363;SDS011;56526;55.406;86.130;2022-09-09T12:24:02;6.70;;;1.63;;
69363;SDS011;56526;55.406;86.130;2022-09-09T12:26:38;4.15;;;2.00;;
69363;SDS011;56526;55.406;86.130;2022-09-09T12:35:08;39.47;;;13.15;;
69363;SDS011;56526;55.406;86.130;2022-09-09T12:40:22;28.52;;;11.25;;
69363;SDS011;56526;55.406;86.130;2022-09-09T12:42:51;33.67;;;10.65;;
69363;SDS011;56526;55.406;86.130;2022-09-09T12:45:19;21.58;;;9.70;;
69363;SDS011;56526;55.406;86.130;2022-09-09T12:47:58;27.73;;;11.07;;
69363;SDS011;56526;55.406;86.130;2022-09-09T12:50:37;23.20;;;10.38;;
69363;SDS011;56526;55.406;86.130;2022-09-09T12:53:12;21.30;;;9.23;;
69363;SDS011;56526;55.406;86.130;2022-09-09T12:56:01;25.15;;;8.85;;
69363;SDS011;56526;55.406;86.130;2022-09-09T12:58:31;22.60;;;9.13;;
69363;SDS011;56526;55.406;86.130;2022-09-09T13:01:01;22.05;;;7.95;;
69363;SDS011;56526;55.406;86.130;2022-09-09T13:03:29;20.42;;;8.15;;
69363;SDS011;56526;55.406;86.130;2022-09-09T13:05:58;17.40;;;6.93;;
69363;SDS011;56526;55.406;86.130;2022-09-09T13:08:37;13.45;;;6.38;;
69363;SDS011;56526;55.406;86.130;2022-09-09T13:11:06;15.20;;;5.38;;
69363;SDS011;56526;55.406;86.130;2022-09-09T13:13:40;20.83;;;6.38;;
69363;SDS011;56526;55.406;86.130;2022-09-09T13:19:07;13.38;;;5.72;;
69363;SDS011;56526;55.406;86.130;2022-09-09T13:21:38;17.70;;;5.82;;
69363;SDS011;56526;55.406;86.130;2022-09-09T13:24:06;10.98;;;5.78;;
69363;SDS011;56526;55.406;86.130;2022-09-09T13:26:54;11.10;;;4.78;;
69363;SDS011;56526;55.406;86.130;2022-09-09T13:29:23;12.52;;;5.00;;
69363;SDS011;56526;55.406;86.130;2022-09-09T13:31:50;15.60;;;5.35;;
69363;SDS011;56526;55.406;86.130;2022-09-09T13:34:28;12.82;;;4.88;;
69363;SDS011;56526;55.406;86.130;2022-09-09T13:37:00;8.35;;;4.88;;
69363;SDS011;56526;55.406;86.130;2022-09-09T13:40:03;15.77;;;9.10;;
69363;SDS011;56526;55.406;86.130;2022-09-09T13:42:32;19.95;;;7.00;;
69363;SDS011;56526;55.406;86.130;2022-09-09T13:45:05;20.58;;;8.15;;
69363;SDS011;56526;55.406;86.130;2022-09-09T13:47:40;16.95;;;7.00;;
69363;SDS011;56526;55.406;86.130;2022-09-09T13:52:48;29.48;;;10.65;;
69363;SDS011;56526;55.406;86.130;2022-09-09T13:55:22;21.65;;;10.70;;
69363;SDS011;56526;55.406;86.130;2022-09-09T13:57:54;27.92;;;10.98;;
69363;SDS011;56526;55.406;86.130;2022-09-09T14:00:26;35.38;;;13.40;;
69363;SDS011;56526;55.406;86.130;2022-09-09T14:02:55;22.05;;;9.70;;
69363;SDS011;56526;55.406;86.130;2022-09-09T14:05:25;26.45;;;10.40;;
69363;SDS011;56526;55.406;86.130;2022-09-09T14:07:52;24.45;;;10.05;;
69363;SDS011;56526;55.406;86.130;2022-09-09T14:10:26;17.05;;;7.65;;
69363;SDS011;56526;55.406;86.130;2022-09-09T14:12:53;19.98;;;8.55;;
69363;SDS011;56526;55.406;86.130;2022-09-09T14:15:20;19.02;;;7.97;;
69363;SDS011;56526;55.406;86.130;2022-09-09T14:17:47;14.50;;;6.85;;
69363;SDS011;56526;55.406;86.130;2022-09-09T14:20:14;15.15;;;5.60;;
69363;SDS011;56526;55.406;86.130;2022-09-09T14:22:41;12.63;;;6.25;;
69363;SDS011;56526;55.406;86.130;2022-09-09T14:25:08;17.63;;;10.50;;
69363;SDS011;56526;55.406;86.130;2022-09-09T14:30:26;13.15;;;6.10;;
69363;SDS011;56526;55.406;86.130;2022-09-09T14:32:56;11.15;;;5.55;;
69363;SDS011;56526;55.406;86.130;2022-09-09T14:35:26;12.65;;;6.28;;
69363;SDS011;56526;55.406;86.130;2022-09-09T14:37:52;11.48;;;5.45;;
69363;SDS011;56526;55.406;86.130;2022-09-09T14:40:18;15.45;;;6.47;;
69363;SDS011;56526;55.406;86.130;2022-09-09T14:42:44;9.93;;;5.60;;
69363;SDS011;56526;55.406;86.130;2022-09-09T14:45:11;12.23;;;5.60;;
69363;SDS011;56526;55.406;86.130;2022-09-09T14:47:37;14.48;;;6.47;;
69363;SDS011;56526;55.406;86.130;2022-09-09T14:50:19;16.05;;;5.63;;
69363;SDS011;56526;55.406;86.130;2022-09-09T14:52:46;16.80;;;6.18;;
69363;SDS011;56526;55.406;86.130;2022-09-09T14:55:13;10.57;;;5.20;;
69363;SDS011;56526;55.406;86.130;2022-09-09T14:57:49;11.70;;;5.40;;
69363;SDS011;56526;55.406;86.130;2022-09-09T15:00:16;15.02;;;6.45;;
69363;SDS011;56526;55.406;86.130;2022-09-09T15:02:47;11.90;;;5.45;;
69363;SDS011;56526;55.406;86.130;2022-09-09T15:05:13;9.82;;;4.70;;
69363;SDS011;56526;55.406;86.130;2022-09-09T15:07:40;11.68;;;4.85;;
69363;SDS011;56526;55.406;86.130;2022-09-09T15:10:06;8.77;;;3.85;;
69363;SDS011;56526;55.406;86.130;2022-09-09T15:12:33;6.43;;;3.75;;
69363;SDS011;56526;55.406;86.130;2022-09-09T15:15:00;5.53;;;2.97;;
69363;SDS011;56526;55.406;86.130;2022-09-09T15:17:26;5.70;;;2.97;;
69363;SDS011;56526;55.406;86.130;2022-09-09T15:19:52;8.50;;;3.50;;
69363;SDS011;56526;55.406;86.130;2022-09-09T15:22:19;4.35;;;3.35;;
69363;SDS011;56526;55.406;86.130;2022-09-09T15:24:50;11.32;;;3.97;;
69363;SDS011;56526;55.406;86.130;2022-09-09T15:27:17;9.02;;;3.83;;
69363;SDS011;56526;55.406;86.130;2022-09-09T15:29:43;9.45;;;4.15;;
69363;SDS011;56526;55.406;86.130;2022-09-09T15:32:09;7.38;;;3.72;;
69363;SDS011;56526;55.406;86.130;2022-09-09T15:34:36;6.47;;;3.53;;
69363;SDS011;56526;55.406;86.130;2022-09-09T15:37:02;9.40;;;4.18;;
69363;SDS011;56526;55.406;86.130;2022-09-09T15:39:28;8.90;;;4.28;;
69363;SDS011;56526;55.406;86.130;2022-09-09T15:41:55;11.30;;;5.43;;
69363;SDS011;56526;55.406;86.130;2022-09-09T15:44:21;14.32;;;4.90;;
69363;SDS011;56526;55.406;86.130;2022-09-09T15:46:51;15.30;;;5.78;;
69363;SDS011;56526;55.406;86.130;2022-09-09T15:49:19;15.25;;;6.25;;
69363;SDS011;56526;55.406;86.130;2022-09-09T15:51:58;12.23;;;5.70;;
69363;SDS011;56526;55.406;86.130;2022-09-09T15:54:25;15.00;;;7.07;;
69363;SDS011;56526;55.406;86.130;2022-09-09T15:56:53;14.63;;;6.32;;
69363;SDS011;56526;55.406;86.130;2022-09-09T15:59:23;19.88;;;6.97;;
69363;SDS011;56526;55.406;86.130;2022-09-09T16:01:52;14.18;;;7.47;;
69363;SDS011;56526;55.406;86.130;2022-09-09T16:04:19;22.00;;;8.15;;
69363;SDS011;56526;55.406;86.130;2022-09-09T16:06:46;17.20;;;8.02;;
69363;SDS011;56526;55.406;86.130;2022-09-09T16:09:12;29.73;;;9.82;;
69363;SDS011;56526;55.406;86.130;2022-09-09T16:11:39;25.65;;;10.02;;
69363;SDS011;56526;55.406;86.130;2022-09-09T16:14:05;25.83;;;10.73;;
69363;SDS011;56526;55.406;86.130;2022-09-09T16:16:32;21.55;;;9.38;;
69363;SDS011;56526;55.406;86.130;2022-09-09T16:18:59;24.17;;;9.10;;
69363;SDS011;56526;55.406;86.130;2022-09-09T16:21:31;25.13;;;11.18;;
69363;SDS011;56526;55.406;86.130;2022-09-09T16:24:01;21.80;;;10.35;;
69363;SDS011;56526;55.406;86.130;2022-09-09T16:26:30;24.90;;;11.07;;
69363;SDS011;56526;55.406;86.130;2022-09-09T16:29:01;26.08;;;9.73;;
69363;SDS011;56526;55.406;86.130;2022-09-09T16:31:28;22.75;;;9.80;;
69363;SDS011;56526;55.406;86.130;2022-09-09T16:33:56;26.48;;;11.35;;
69363;SDS011;56526;55.406;86.130;2022-09-09T16:36:23;26.17;;;10.32;;
69363;SDS011;56526;55.406;86.130;2022-09-09T16:38:56;18.67;;;9.05;;
69363;SDS011;56526;55.406;86.130;2022-09-09T16:41:26;19.98;;;8.45;;
69363;SDS011;56526;55.406;86.130;2022-09-09T16:43:54;21.33;;;7.78;;
69363;SDS011;56526;55.406;86.130;2022-09-09T16:46:22;22.73;;;9.05;;
69363;SDS011;56526;55.406;86.130;2022-09-09T16:48:49;22.25;;;8.82;;
69363;SDS011;56526;55.406;86.130;2022-09-09T16:51:21;24.02;;;9.63;;
69363;SDS011;56526;55.406;86.130;2022-09-09T16:54:01;20.52;;;9.15;;
69363;SDS011;56526;55.406;86.130;2022-09-09T16:56:31;26.23;;;11.88;;
69363;SDS011;56526;55.406;86.130;2022-09-09T16:58:59;23.90;;;9.95;;
69363;SDS011;56526;55.406;86.130;2022-09-09T17:01:30;26.15;;;12.52;;
69363;SDS011;56526;55.406;86.130;2022-09-09T17:04:00;29.02;;;13.15;;
69363;SDS011;56526;55.406;86.130;2022-09-09T17:06:31;32.28;;;13.38;;
69363;SDS011;56526;55.406;86.130;2022-09-09T17:08:59;31.65;;;13.10;;
69363;SDS011;56526;55.406;86.130;2022-09-09T17:11:28;30.15;;;12.35;;